Time;durP1;ratioP1;P1;durP2;ratioP2;P2;SDS_P1;SDS_P2;PMS_P1;PMS_P2;Temp;Humidity;BMP_temperature;BMP_pressure;BME280_temperature;BME280_humidity;BME280_pressure;Samples;Min_cycle;Max_cycle;Signal;HPM_P1;HPM_P2
2022/11/07 00:01:39;;;;;;;27.62;18.45;;;;;;;10.21;79.04;100105.34;4317657;33;33597;-79
2022/11/07 00:04:06;;;;;;;27.70;18.15;;;;;;;10.50;77.83;100104.66;4318715;33;34298;-75
2022/11/07 00:06:36;;;;;;;26.67;18.08;;;;;;;10.64;76.94;100106.03;4319526;33;34585;-78
2022/11/07 00:09:04;;;;;;;26.92;18.45;;;;;;;10.73;76.43;100106.47;4319922;33;33870;-83
2022/11/07 00:11:31;;;;;;;28.05;18.40;;;;;;;10.61;76.77;100110.03;4306546;33;34324;-75
2022/11/07 00:13:59;;;;;;;26.83;18.12;;;;;;;10.74;75.81;100111.66;4318674;33;34009;-78
2022/11/07 00:16:27;;;;;;;26.08;16.87;;;;;;;10.55;76.74;100105.56;4306606;33;33375;-77
2022/11/07 00:18:55;;;;;;;28.55;17.50;;;;;;;10.38;77.77;100120.94;4306158;33;34784;-75
2022/11/07 00:21:22;;;;;;;30.62;17.40;;;;;;;10.17;79.00;100117.78;4306330;33;34247;-75
2022/11/07 00:23:50;;;;;;;27.00;16.77;;;;;;;10.55;77.15;100119.13;4319743;33;33588;-74
2022/11/07 00:26:17;;;;;;;25.80;16.23;;;;;;;10.43;77.71;100130.03;4319299;33;33126;-76
2022/11/07 00:28:45;;;;;;;24.50;16.10;;;;;;;10.73;76.73;100123.56;4318490;33;34747;-76
2022/11/07 00:31:13;;;;;;;25.08;15.90;;;;;;;10.67;76.99;100128.09;4319624;33;34839;-76
2022/11/07 00:33:42;;;;;;;24.65;16.40;;;;;;;10.79;76.75;100128.03;4305502;33;34768;-75
2022/11/07 00:36:19;;;;;;;24.77;15.98;;;;;;;10.82;76.45;100134.88;4306399;33;34847;-76
2022/11/07 00:38:47;;;;;;;25.95;15.40;;;;;;;10.18;79.66;100134.84;4319081;33;34752;-79
2022/11/07 00:41:14;;;;;;;22.33;14.93;;;;;;;10.40;78.85;100133.19;4319519;33;34307;-77
2022/11/07 00:43:41;;;;;;;23.48;15.63;;;;;;;10.45;78.78;100127.91;4319517;33;34083;-74
2022/11/07 00:46:10;;;;;;;29.15;17.15;;;;;;;9.94;81.97;100129.44;4318634;33;33326;-78
2022/11/07 00:48:38;;;;;;;27.62;16.40;;;;;;;10.23;80.56;100121.41;4306295;33;34619;-79
2022/11/07 00:51:08;;;;;;;24.60;16.35;;;;;;;10.22;80.52;100122.47;4306268;33;34082;-79
2022/11/07 00:53:36;;;;;;;29.27;18.33;;;;;;;10.35;80.03;100130.38;4305743;33;33960;-77
2022/11/07 00:56:06;;;;;;;24.75;17.62;;;;;;;10.31;80.27;100122.97;4305986;33;34595;-78
2022/11/07 00:58:33;;;;;;;27.45;17.25;;;;;;;10.36;80.27;100126.59;4319082;33;33812;-75
2022/11/07 01:01:09;;;;;;;24.95;17.12;;;;;;;10.88;77.67;100125.75;4319514;33;35002;-78
2022/11/07 01:06:25;;;;;;;22.65;15.40;;;;;;;10.99;77.03;100124.06;4293702;33;33440;-76
2022/11/07 01:08:53;;;;;;;23.52;15.75;;;;;;;10.95;77.20;100131.91;4304791;33;34714;-77
2022/11/07 01:11:21;;;;;;;22.05;14.90;;;;;;;11.05;76.76;100126.62;4291820;33;35063;-76
2022/11/07 01:13:49;;;;;;;25.90;16.00;;;;;;;11.03;77.28;100136.91;4291298;33;33204;-75
2022/11/07 01:16:16;;;;;;;21.62;14.20;;;;;;;11.06;77.12;100122.06;4311522;33;34315;-75
2022/11/07 01:18:43;;;;;;;21.25;13.70;;;;;;;11.31;76.28;100137.16;4317911;33;34892;-78
2022/11/07 01:21:11;;;;;;;21.87;14.95;;;;;;;11.13;77.02;100132.75;4306105;33;34206;-76
2022/11/07 01:23:43;;;;;;;24.02;15.18;;;;;;;10.87;78.16;100124.94;4319323;33;33870;-76
2022/11/07 01:26:11;;;;;;;27.45;14.50;;;;;;;10.76;79.04;100117.66;4319361;33;34310;-76
2022/11/07 01:28:39;;;;;;;21.60;14.57;;;;;;;10.62;79.84;100121.72;4318931;33;33950;-77
2022/11/07 01:31:08;;;;;;;20.27;13.50;;;;;;;10.96;78.45;100119.94;4306011;33;33971;-76
2022/11/07 01:33:36;;;;;;;21.35;14.35;;;;;;;11.31;77.19;100120.88;4305141;33;34541;-75
2022/11/07 01:36:10;;;;;;;24.83;13.93;;;;;;;11.42;76.69;100122.69;4305054;33;33251;-76
2022/11/07 01:38:39;;;;;;;23.52;13.95;;;;;;;11.37;76.95;100122.59;4306585;33;33957;-76
2022/11/07 01:41:21;;;;;;;23.08;14.68;;;;;;;11.56;76.03;100128.66;4319288;33;34366;-74
2022/11/07 01:44:06;;;;;;;23.17;13.95;;;;;;;11.43;76.51;100127.06;4318211;33;34254;-75
2022/11/07 01:46:36;;;;;;;22.30;13.50;;;;;;;11.17;77.81;100129.31;4318890;33;34492;-76
2022/11/07 01:49:22;;;;;;;22.30;13.18;;;;;;;11.15;78.11;100125.19;4305519;33;33915;-75
2022/11/07 01:51:59;;;;;;;18.45;12.37;;;;;;;11.03;79.02;100136.09;4319187;33;33987;-76
2022/11/07 01:54:31;;;;;;;19.00;12.80;;;;;;;11.03;79.05;100138.81;4319134;33;33842;-76
2022/11/07 01:57:03;;;;;;;21.48;13.30;;;;;;;10.75;80.72;100136.91;4305122;33;33394;-76
2022/11/07 01:59:32;;;;;;;19.42;13.43;;;;;;;11.04;79.09;100138.56;4305025;33;33740;-77
2022/11/07 02:02:00;;;;;;;22.65;13.45;;;;;;;11.19;78.61;100126.38;4305017;33;34132;-76
2022/11/07 02:04:28;;;;;;;19.35;13.30;;;;;;;11.28;78.43;100131.16;4319137;33;34807;-76
2022/11/07 02:07:04;;;;;;;18.73;12.73;;;;;;;11.35;78.13;100128.28;4305642;33;33452;-79
2022/11/07 02:09:32;;;;;;;19.92;12.98;;;;;;;11.61;76.81;100134.97;4305636;33;33867;-77
2022/11/07 02:12:00;;;;;;;20.77;12.85;;;;;;;11.42;77.95;100133.56;4293865;33;35077;-76
2022/11/07 02:14:28;;;;;;;18.45;11.98;;;;;;;11.39;78.14;100134.88;4319045;33;33757;-76
2022/11/07 02:16:56;;;;;;;16.50;11.90;;;;;;;11.44;78.05;100136.84;4318165;33;33455;-76
2022/11/07 02:19:39;;;;;;;17.42;12.63;;;;;;;11.54;77.67;100130.78;4305828;33;33999;-78
2022/11/07 02:22:48;;;;;;;20.98;12.80;;;;;;;11.32;78.89;100139.63;4318823;33;33767;-79
2022/11/07 02:25:17;;;;;;;22.52;13.62;;;;;;;11.40;79.01;100135.69;4273048;33;34138;-79
2022/11/07 02:27:47;;;;;;;20.15;13.07;;;;;;;11.46;77.83;100129.28;4312054;33;32944;-78
2022/11/07 02:30:20;;;;;;;19.92;13.52;;;;;;;11.16;79.45;100134.97;4318924;33;33988;-78
2022/11/07 02:32:49;;;;;;;19.60;12.07;;;;;;;11.39;78.86;100136.78;4304771;33;34175;-79
2022/11/07 02:35:38;;;;;;;17.48;12.23;;;;;;;11.68;77.33;100126.66;4317524;33;34967;-79
2022/11/07 02:38:30;;;;;;;20.92;12.60;;;;;;;11.64;77.58;100128.22;4318597;33;34604;-76
2022/11/07 02:41:00;;;;;;;18.27;12.05;;;;;;;11.79;77.30;100130.34;4299203;33;33862;-75
2022/11/07 02:43:29;;;;;;;18.05;11.85;;;;;;;11.75;77.16;100126.47;4318721;33;34298;-76
2022/11/07 02:45:58;;;;;;;18.77;11.35;;;;;;;11.26;79.59;100118.87;4293072;33;33132;-76
2022/11/07 02:48:30;;;;;;;20.05;12.15;;;;;;;11.40;79.05;100119.38;4305737;33;33312;-75
2022/11/07 02:50:58;;;;;;;16.55;11.55;;;;;;;11.47;79.04;100120.06;4317222;33;34745;-78
2022/11/07 02:53:25;;;;;;;16.73;11.20;;;;;;;12.05;75.96;100116.13;4305791;33;34188;-75
2022/11/07 02:55:52;;;;;;;17.77;11.00;;;;;;;11.74;77.14;100125.66;4318114;33;34066;-75
2022/11/07 02:58:20;;;;;;;16.98;10.70;;;;;;;12.36;74.58;100124.72;4318538;33;34244;-79
2022/11/07 03:00:47;;;;;;;18.48;10.88;;;;;;;11.88;76.15;100118.06;4318485;33;34781;-82
2022/11/07 03:03:15;;;;;;;17.92;11.68;;;;;;;12.04;75.93;100111.75;4317809;33;35041;-77
2022/11/07 03:05:43;;;;;;;15.05;9.93;;;;;;;11.85;76.39;100119.31;4318441;33;33805;-75
2022/11/07 03:08:10;;;;;;;17.15;10.88;;;;;;;11.98;76.25;100115.47;4316415;33;32654;-78
2022/11/07 03:10:37;;;;;;;20.15;11.90;;;;;;;11.94;76.26;100118.94;4317967;33;33945;-75
2022/11/07 03:13:05;;;;;;;16.00;10.70;;;;;;;11.72;77.43;100116.94;4318519;33;34981;-79
2022/11/07 03:15:32;;;;;;;17.73;11.73;;;;;;;12.00;76.55;100117.94;4318571;33;34051;-76
2022/11/07 03:18:00;;;;;;;15.90;10.60;;;;;;;11.93;76.78;100118.13;4318362;33;34419;-75
2022/11/07 03:20:27;;;;;;;18.85;11.30;;;;;;;11.95;76.95;100126.03;4305296;33;34022;-80
2022/11/07 03:22:55;;;;;;;23.02;12.55;;;;;;;11.87;77.45;100121.78;4305106;33;33469;-78
2022/11/07 03:25:22;;;;;;;17.85;11.55;;;;;;;11.89;77.51;100130.56;4316198;33;34943;-75
2022/11/07 03:27:50;;;;;;;20.33;11.10;;;;;;;11.93;77.50;100129.00;4318522;33;34571;-78
2022/11/07 03:30:17;;;;;;;20.05;11.70;;;;;;;12.01;77.11;100125.88;4318515;33;34108;-76
2022/11/07 03:32:45;;;;;;;21.27;12.98;;;;;;;11.42;80.07;100126.22;4318006;33;34690;-76
2022/11/07 03:35:12;;;;;;;22.30;12.52;;;;;;;11.54;79.62;100130.78;4318313;33;34846;-75
2022/11/07 03:37:40;;;;;;;21.30;12.20;;;;;;;11.78;78.45;100126.81;4303875;33;33511;-75
2022/11/07 03:40:07;;;;;;;22.80;12.55;;;;;;;12.27;76.06;100124.34;4304721;33;34112;-76
2022/11/07 03:42:39;;;;;;;22.00;12.30;;;;;;;12.62;74.44;100128.59;4316696;33;33889;-78
2022/11/07 03:45:07;;;;;;;21.40;11.85;;;;;;;12.31;75.56;100127.38;4318133;33;34090;-74
2022/11/07 03:47:36;;;;;;;28.92;13.43;;;;;;;12.28;76.08;100127.88;4303390;33;33607;-75
2022/11/07 03:50:04;;;;;;;21.25;13.43;;;;;;;11.82;78.22;100124.44;4304949;33;33905;-75
2022/11/07 03:52:32;;;;;;;22.83;12.88;;;;;;;11.64;79.41;100128.22;4304784;33;34990;-74
2022/11/07 03:54:59;;;;;;;20.48;12.35;;;;;;;12.00;77.93;100135.06;4304471;33;33811;-78
2022/11/07 03:57:27;;;;;;;24.17;12.65;;;;;;;12.15;77.41;100136.38;4317748;33;33081;-76
2022/11/07 03:59:54;;;;;;;23.60;13.07;;;;;;;11.91;78.57;100136.56;4304719;33;34690;-76
2022/11/07 04:02:24;;;;;;;19.98;12.65;;;;;;;12.15;77.73;100133.66;4303399;33;34996;-78
2022/11/07 04:04:52;;;;;;;23.02;13.15;;;;;;;12.45;76.35;100146.88;4317994;33;34005;-74
2022/11/07 04:07:20;;;;;;;20.83;12.52;;;;;;;12.20;77.37;100144.63;4318290;33;33499;-76
2022/11/07 04:09:47;;;;;;;21.48;12.23;;;;;;;12.46;76.35;100143.06;4317650;33;34003;-75
2022/11/07 04:17:46;;;;;;;21.73;11.95;;;;;;;11.96;78.49;100161.12;4318004;33;33723;-76
2022/11/07 04:20:14;;;;;;;20.33;12.52;;;;;;;11.92;78.88;100148.28;4316484;33;34728;-75
2022/11/07 04:22:41;;;;;;;19.12;12.18;;;;;;;11.93;78.91;100149.94;4317565;33;34906;-75
2022/11/07 04:25:09;;;;;;;18.80;11.35;;;;;;;11.86;79.48;100152.78;4317085;33;34067;-79
2022/11/07 04:27:42;;;;;;;20.70;12.82;;;;;;;11.65;80.31;100144.28;4304302;33;33541;-78
2022/11/07 04:30:18;;;;;;;23.25;12.65;;;;;;;11.84;79.43;100141.34;4316842;33;34820;-79
2022/11/07 04:32:53;;;;;;;22.87;12.70;;;;;;;12.04;78.72;100141.66;4317298;33;34233;-76
2022/11/07 04:35:24;;;;;;;22.42;14.00;;;;;;;12.06;78.44;100144.16;4304239;33;33893;-76
2022/11/07 04:37:51;;;;;;;22.48;13.23;;;;;;;12.02;78.80;100140.28;4303109;33;33393;-76
2022/11/07 04:40:19;;;;;;;20.10;12.23;;;;;;;12.01;78.86;100141.38;4317034;33;35038;-76
2022/11/07 04:42:47;;;;;;;22.77;14.20;;;;;;;12.28;77.65;100138.75;4304161;33;35056;-76
2022/11/07 04:45:15;;;;;;;21.45;12.25;;;;;;;12.19;77.76;100124.75;4304208;33;33833;-79
2022/11/07 04:47:43;;;;;;;17.33;10.52;;;;;;;12.17;77.88;100123.38;4303692;33;34233;-79
2022/11/07 04:50:13;;;;;;;17.23;10.45;;;;;;;12.09;78.08;100124.59;4319104;33;34064;-78
2022/11/07 04:52:40;;;;;;;16.60;10.60;;;;;;;12.41;76.57;100130.22;4305427;33;35154;-74
2022/11/07 04:55:09;;;;;;;15.60;10.05;;;;;;;12.27;77.06;100132.50;4305415;33;34491;-76
2022/11/07 04:57:37;;;;;;;19.37;10.88;;;;;;;12.08;77.54;100133.84;4306693;33;33257;-77
2022/11/07 05:00:05;;;;;;;17.35;10.98;;;;;;;12.39;76.17;100135.09;4319262;33;33164;-76
2022/11/07 05:02:32;;;;;;;16.02;10.23;;;;;;;12.67;74.35;100144.97;4306295;33;33486;-79
2022/11/07 05:05:00;;;;;;;17.95;10.95;;;;;;;12.44;75.02;100146.06;4319689;33;35043;-78
2022/11/07 05:07:27;;;;;;;15.30;10.32;;;;;;;12.46;74.95;100145.78;4319007;33;33805;-75
2022/11/07 05:09:55;;;;;;;15.20;9.40;;;;;;;12.11;76.36;100138.78;4318696;33;34837;-77
2022/11/07 05:12:22;;;;;;;15.38;9.52;;;;;;;12.03;76.88;100145.47;4306324;33;34184;-79
2022/11/07 05:14:50;;;;;;;13.75;9.05;;;;;;;12.21;76.14;100146.28;4319302;33;33909;-76
2022/11/07 05:17:17;;;;;;;13.80;9.35;;;;;;;12.16;76.21;100157.91;4319308;33;33348;-75
2022/11/07 05:19:46;;;;;;;14.02;9.48;;;;;;;12.11;76.02;100141.50;4306455;33;33730;-84
2022/11/07 05:25:00;;;;;;;15.07;8.85;;;;;;;11.82;77.05;100141.56;4319638;33;33918;-73
2022/11/07 05:27:29;;;;;;;15.88;10.27;;;;;;;12.09;76.41;100146.34;4318262;33;33420;-73
2022/11/07 05:29:56;;;;;;;17.00;10.20;;;;;;;12.28;75.44;100136.03;4318476;33;33820;-80
2022/11/07 05:32:24;;;;;;;14.80;9.57;;;;;;;12.01;76.59;100144.91;4317439;33;34224;-87
2022/11/07 05:34:51;;;;;;;15.35;9.57;;;;;;;12.17;75.95;100139.69;4310219;33;33706;-70
2022/11/07 05:37:18;;;;;;;14.60;9.93;;;;;;;12.18;76.03;100136.72;4317550;33;34349;-84
2022/11/07 05:39:46;;;;;;;15.23;9.95;;;;;;;11.99;76.80;100140.78;4317890;33;34145;-74
2022/11/07 05:42:20;;;;;;;15.95;9.75;;;;;;;11.89;77.33;100153.13;4303749;33;35159;-82
2022/11/07 05:44:48;;;;;;;16.12;10.13;;;;;;;11.80;77.78;100161.94;4317111;33;33620;-70
2022/11/07 05:47:15;;;;;;;17.48;10.80;;;;;;;12.03;76.95;100177.25;4317915;33;33198;-70
2022/11/07 05:49:43;;;;;;;18.33;11.57;;;;;;;12.11;76.44;100179.56;4317748;33;33557;-71
2022/11/07 05:52:10;;;;;;;18.80;11.48;;;;;;;11.29;80.72;100186.28;4317870;33;35236;-71
2022/11/07 05:54:38;;;;;;;16.85;11.07;;;;;;;11.58;79.19;100183.56;4317816;33;35123;-70
2022/11/07 05:57:05;;;;;;;22.92;13.18;;;;;;;12.31;75.84;100193.50;4317063;33;32733;-72
2022/11/07 05:59:32;;;;;;;23.27;13.15;;;;;;;12.27;75.63;100199.69;4315474;33;33971;-83
2022/11/07 06:02:00;;;;;;;19.27;11.65;;;;;;;12.25;75.82;100201.84;4317151;33;34200;-72
2022/11/07 06:04:28;;;;;;;19.87;11.82;;;;;;;12.61;74.48;100203.19;4317682;33;33799;-73
2022/11/07 06:06:55;;;;;;;21.35;13.15;;;;;;;12.26;75.78;100204.28;4317562;33;33501;-73
2022/11/07 06:09:22;;;;;;;20.70;12.30;;;;;;;12.38;75.13;100203.37;4317347;33;34358;-73
2022/11/07 06:11:50;;;;;;;18.87;12.80;;;;;;;12.24;76.02;100200.19;4303207;33;33948;-73
2022/11/07 06:14:17;;;;;;;22.30;12.82;;;;;;;12.45;75.28;100212.19;4314231;33;75054;-72
2022/11/07 06:16:45;;;;;;;19.60;11.95;;;;;;;12.38;75.78;100206.94;4317869;33;33350;-77
2022/11/07 06:19:12;;;;;;;18.65;12.15;;;;;;;12.15;76.97;100215.28;4317258;33;34083;-73
2022/11/07 06:21:40;;;;;;;21.42;12.95;;;;;;;12.55;75.51;100225.12;4317695;33;35188;-76
2022/11/07 06:24:09;;;;;;;18.58;11.57;;;;;;;12.62;75.32;100236.66;4317796;33;33842;-72
2022/11/07 06:26:42;;;;;;;18.95;12.45;;;;;;;12.51;75.78;100236.50;4317137;33;34325;-74
2022/11/07 06:29:09;;;;;;;21.10;12.68;;;;;;;11.83;78.37;100234.81;4316907;33;34725;-73
2022/11/07 06:31:37;;;;;;;21.40;12.20;;;;;;;11.95;78.40;100245.69;4317639;33;33993;-73
2022/11/07 06:34:04;;;;;;;20.75;12.30;;;;;;;12.07;78.20;100249.12;4317554;33;33993;-73
2022/11/07 06:36:32;;;;;;;20.88;12.07;;;;;;;11.58;80.84;100262.38;4304313;33;34400;-73
2022/11/07 06:38:59;;;;;;;17.73;11.38;;;;;;;12.05;78.98;100256.72;4304333;33;34862;-73
2022/11/07 06:41:27;;;;;;;22.73;13.20;;;;;;;12.34;77.70;100264.81;4315350;33;35102;-83
2022/11/07 06:43:54;;;;;;;21.42;14.15;;;;;;;12.11;78.93;100258.44;4316620;33;34609;-81
2022/11/07 06:46:22;;;;;;;19.35;11.80;;;;;;;12.00;79.66;100256.63;4317565;33;33842;-78
2022/11/07 06:48:50;;;;;;;21.52;12.52;;;;;;;12.19;79.16;100259.94;4317619;33;33918;-74
2022/11/07 06:51:17;;;;;;;23.80;12.30;;;;;;;12.15;79.81;100262.34;4317465;33;34969;-74
2022/11/07 06:53:44;;;;;;;21.25;12.23;;;;;;;12.33;79.36;100266.69;4317381;33;34730;-82
2022/11/07 06:56:14;;;;;;;23.77;12.60;;;;;;;12.37;79.51;100267.03;4303830;33;33072;-72
2022/11/07 06:58:41;;;;;;;27.05;13.23;;;;;;;12.91;77.03;100270.84;4317481;33;34658;-71
2022/11/07 07:01:12;;;;;;;21.58;13.13;;;;;;;13.03;75.67;100269.91;4316490;33;33940;-83
2022/11/07 07:03:41;;;;;;;22.15;13.13;;;;;;;12.88;76.06;100274.06;4317265;33;34018;-82
2022/11/07 07:06:13;;;;;;;23.50;12.80;;;;;;;12.76;77.08;100272.50;4304315;33;34292;-73
2022/11/07 07:08:41;;;;;;;24.23;12.98;;;;;;;12.72;77.81;100273.03;4317183;33;34124;-70
2022/11/07 07:11:11;;;;;;;22.70;13.30;;;;;;;12.75;78.00;100276.31;4317600;33;34274;-80
2022/11/07 07:13:38;;;;;;;22.00;13.45;;;;;;;13.01;76.28;100278.31;4315993;33;34885;-84
2022/11/07 07:16:07;;;;;;;20.42;12.65;;;;;;;12.96;76.55;100286.44;4304237;33;34187;-83
2022/11/07 07:18:34;;;;;;;21.10;11.85;;;;;;;12.84;77.55;100293.88;4317506;33;34027;-73
2022/11/07 07:21:10;;;;;;;22.27;12.13;;;;;;;12.84;77.97;100294.69;4303287;33;34765;-73
2022/11/07 07:23:38;;;;;;;22.85;13.02;;;;;;;13.02;77.61;100292.75;4304137;33;33804;-75
2022/11/07 07:26:08;;;;;;;27.27;12.70;;;;;;;13.20;75.29;100289.75;4317229;33;33049;-80
2022/11/07 07:28:36;;;;;;;20.50;11.98;;;;;;;13.02;74.69;100288.13;4304863;33;33867;-83
2022/11/07 07:31:12;;;;;;;22.42;12.13;;;;;;;13.32;73.82;100287.72;4318375;33;34358;-79
2022/11/07 07:33:44;;;;;;;23.15;12.70;;;;;;;12.91;75.81;100286.34;4318250;33;34216;-84
2022/11/07 07:36:12;;;;;;;21.55;11.85;;;;;;;13.03;76.22;100284.34;4317312;33;34390;-75
2022/11/07 07:38:47;;;;;;;18.37;11.02;;;;;;;13.00;75.69;100286.72;4305833;33;34550;-75
2022/11/07 07:41:16;;;;;;;22.08;11.43;;;;;;;13.41;74.29;100290.00;4302985;33;35072;-76
2022/11/07 07:43:43;;;;;;;18.70;10.77;;;;;;;13.45;73.22;100291.97;4318496;33;33906;-75
2022/11/07 07:46:16;;;;;;;20.77;11.80;;;;;;;13.46;73.39;100295.53;4305061;33;33579;-79
2022/11/07 07:48:44;;;;;;;22.15;11.55;;;;;;;13.32;73.37;100289.62;4305051;33;33830;-76
2022/11/07 07:51:11;;;;;;;17.62;11.27;;;;;;;13.26;74.00;100296.06;4316993;33;34028;-79
2022/11/07 07:53:39;;;;;;;19.62;11.40;;;;;;;13.27;74.08;100289.56;4317925;33;34867;-80
2022/11/07 07:56:07;;;;;;;18.52;10.75;;;;;;;13.40;73.17;100294.66;4317691;33;34870;-79
2022/11/07 07:58:34;;;;;;;18.17;10.27;;;;;;;13.38;73.47;100290.53;4318067;33;33811;-78
2022/11/07 08:01:08;;;;;;;19.92;10.93;;;;;;;13.20;74.05;100295.19;4318259;33;34253;-76
2022/11/07 08:03:36;;;;;;;;;;;;;;;13.02;75.40;100301.75;4318268;33;33950;-79
2022/11/07 08:06:23;;;;;;;19.17;11.02;;;;;;;13.83;71.65;100300.31;4306862;33;33292;-75
2022/11/07 08:08:51;;;;;;;21.20;11.25;;;;;;;13.52;71.67;100289.91;4312265;33;34819;-81
2022/11/07 08:11:18;;;;;;;21.20;11.27;;;;;;;13.37;73.07;100295.16;4303038;33;34336;-73
2022/11/07 08:13:46;;;;;;;18.20;12.05;;;;;;;13.26;75.01;100290.63;4301215;33;34734;-85
2022/11/07 08:16:13;;;;;;;17.08;10.00;;;;;;;13.26;74.89;100291.47;4302250;33;34440;-85
2022/11/07 08:18:41;;;;;;;20.15;11.07;;;;;;;13.73;72.88;100299.09;4288960;33;34774;-75
2022/11/07 08:21:08;;;;;;;19.33;11.10;;;;;;;13.67;73.32;100297.44;4301931;33;33773;-84
2022/11/07 08:23:36;;;;;;;17.62;10.95;;;;;;;13.14;76.58;100296.19;4306521;33;34861;-75
2022/11/07 08:26:04;;;;;;;19.15;10.25;;;;;;;13.76;74.51;100292.34;4318604;33;33730;-85
2022/11/07 08:28:33;;;;;;;19.83;10.57;;;;;;;13.94;72.96;100288.44;4318174;33;34015;-76
2022/11/07 08:31:04;;;;;;;19.35;10.88;;;;;;;14.23;71.00;100296.31;4318486;33;34022;-75
2022/11/07 08:33:32;;;;;;;17.80;10.00;;;;;;;13.72;72.85;100289.28;4318469;33;33721;-75
2022/11/07 08:36:00;;;;;;;19.67;10.13;;;;;;;13.89;72.17;100288.37;4303306;33;34118;-75
2022/11/07 08:38:29;;;;;;;17.60;9.60;;;;;;;13.91;72.36;100286.22;4305006;33;34020;-74
2022/11/07 08:40:57;;;;;;;18.17;9.63;;;;;;;13.80;72.55;100287.19;4315883;33;34336;-73
2022/11/07 08:43:25;;;;;;;17.40;10.57;;;;;;;13.81;72.60;100294.28;4317933;33;34789;-74
2022/11/07 08:45:53;;;;;;;17.85;9.95;;;;;;;14.25;70.35;100289.50;4318475;33;33596;-73
2022/11/07 08:48:21;;;;;;;16.50;9.88;;;;;;;14.23;69.46;100290.88;4304979;33;33998;-72
2022/11/07 08:50:53;;;;;;;17.42;9.60;;;;;;;14.15;70.52;100287.53;4304954;33;34072;-71
2022/11/07 08:53:21;;;;;;;16.33;9.68;;;;;;;14.00;72.05;100292.03;4318282;33;34515;-74
2022/11/07 08:55:49;;;;;;;18.73;9.57;;;;;;;13.98;72.16;100295.00;4304863;33;33912;-77
2022/11/07 08:58:17;;;;;;;19.08;10.43;;;;;;;14.23;71.58;100299.06;4316851;33;34877;-84
2022/11/07 09:00:45;;;;;;;15.73;9.40;;;;;;;14.37;71.09;100305.72;4304967;33;34024;-74
2022/11/07 09:03:13;;;;;;;18.08;9.18;;;;;;;14.80;68.83;100301.16;4317827;33;34038;-76
2022/11/07 09:06:01;;;;;;;17.87;9.70;;;;;;;14.23;70.09;100301.78;4308067;33;33475;-77
2022/11/07 09:08:28;;;;;;;16.33;9.57;;;;;;;14.29;71.08;100301.56;4319513;33;33808;-78
2022/11/07 09:11:00;;;;;;;18.52;9.60;;;;;;;14.48;69.50;100310.19;4319297;33;34288;-74
2022/11/07 09:13:32;;;;;;;15.45;9.32;;;;;;;14.54;69.81;100314.59;4319453;33;34162;-83
2022/11/07 09:16:01;;;;;;;15.25;8.80;;;;;;;14.28;71.18;100312.75;4305034;33;33528;-76
2022/11/07 09:18:29;;;;;;;16.83;9.38;;;;;;;14.42;71.19;100313.12;4305864;33;33519;-81
2022/11/07 09:20:57;;;;;;;16.62;9.52;;;;;;;14.58;69.76;100312.22;4305985;33;33744;-72
2022/11/07 09:23:25;;;;;;;14.80;8.52;;;;;;;14.52;69.89;100315.97;4306264;33;34825;-71
2022/11/07 09:25:53;;;;;;;17.55;8.43;;;;;;;14.64;69.08;100313.88;4306232;33;33675;-80
2022/11/07 09:28:20;;;;;;;17.50;9.07;;;;;;;14.73;68.54;100312.31;4305792;33;34781;-71
2022/11/07 09:30:55;;;;;;;14.63;8.75;;;;;;;14.49;69.89;100313.72;4318944;33;34268;-71
2022/11/07 09:33:23;;;;;;;16.17;8.55;;;;;;;14.87;68.10;100311.87;4305039;33;34780;-71
2022/11/07 09:35:50;;;;;;;17.37;9.60;;;;;;;14.42;69.95;100308.50;4318325;33;33534;-78
2022/11/07 09:38:18;;;;;;;15.82;9.02;;;;;;;14.47;68.74;100315.91;4319542;33;34650;-77
2022/11/07 09:41:04;;;;;;;12.65;8.40;;;;;;;14.64;68.77;100313.88;4319205;33;34139;-73
2022/11/07 09:44:12;;;;;;;17.85;9.52;;;;;;;14.42;70.71;100315.88;4319108;33;34411;-72
2022/11/07 09:46:57;;;;;;;16.42;8.40;;;;;;;14.58;70.08;100314.94;4305926;33;34179;-73
2022/11/07 09:49:33;;;;;;;17.42;9.55;;;;;;;14.63;70.31;100314.97;4304092;33;34701;-73
2022/11/07 09:52:30;;;;;;;15.38;8.85;;;;;;;14.67;70.00;100309.81;4303434;33;35191;-71
2022/11/07 09:55:11;;;;;;;19.20;10.07;;;;;;;14.62;69.57;100305.16;4281005;33;33344;-72
2022/11/07 09:57:39;;;;;;;15.65;9.35;;;;;;;15.01;67.00;100309.47;4305871;33;34421;-83
2022/11/07 10:00:17;;;;;;;15.32;8.73;;;;;;;14.36;70.52;100310.38;4305555;33;34876;-72
2022/11/07 10:02:49;;;;;;;15.80;8.90;;;;;;;14.11;71.85;100310.16;4312629;33;34171;-75
2022/11/07 10:05:28;;;;;;;36.95;19.83;;;;;;;14.41;70.10;100315.06;4318914;33;34193;-74
2022/11/07 10:08:01;;;;;;;20.35;10.90;;;;;;;14.40;70.49;100312.56;4318658;33;33273;-81
2022/11/07 10:10:50;;;;;;;16.48;9.00;;;;;;;14.60;69.45;100307.31;4318979;33;34811;-76
2022/11/07 10:13:53;;;;;;;19.35;9.65;;;;;;;14.45;69.99;100315.34;4305275;33;34457;-82
2022/11/07 10:16:32;;;;;;;14.52;8.93;;;;;;;14.42;70.53;100304.94;4305264;33;33977;-83
2022/11/07 10:19:08;;;;;;;15.55;9.30;;;;;;;14.42;70.36;100307.69;4305022;33;33491;-71
2022/11/07 10:21:43;;;;;;;17.55;9.88;;;;;;;14.36;70.43;100306.81;4292989;33;34033;-70
2022/11/07 10:24:17;;;;;;;16.70;9.15;;;;;;;14.05;71.12;100298.34;4318208;33;34459;-82
2022/11/07 10:26:44;;;;;;;19.37;10.48;;;;;;;14.24;71.16;100298.78;4318726;33;34575;-79
2022/11/07 10:29:14;;;;;;;16.20;9.80;;;;;;;14.34;70.90;100301.63;4304130;33;33347;-81
2022/11/07 10:32:14;;;;;;;17.98;11.88;;;;;;;14.40;70.42;100297.00;4293280;33;33508;-77
2022/11/07 10:34:48;;;;;;;30.40;19.67;;;;;;;14.14;71.58;100301.44;4272265;33;35212;-81
2022/11/07 10:37:21;;;;;;;46.03;29.60;;;;;;;14.27;71.62;100294.72;4303788;33;34534;-74
2022/11/07 10:39:48;;;;;;;22.45;16.50;;;;;;;14.48;70.70;100288.34;4304421;33;34246;-76
2022/11/07 10:42:19;;;;;;;15.95;9.45;;;;;;;14.55;70.23;100288.97;4318532;33;33847;-80
2022/11/07 10:44:47;;;;;;;16.85;9.90;;;;;;;14.58;69.24;100293.09;4305624;33;34337;-74
2022/11/07 10:47:23;;;;;;;14.20;9.48;;;;;;;14.66;69.29;100291.78;4304925;33;33898;-83
2022/11/07 10:49:57;;;;;;;21.75;12.68;;;;;;;14.42;70.23;100291.31;4305576;33;34211;-74
2022/11/07 10:52:27;;;;;;;41.53;24.35;;;;;;;14.72;68.20;100288.00;4301678;33;34952;-78
2022/11/07 10:55:05;;;;;;;23.55;15.10;;;;;;;14.31;68.86;100284.94;4304251;33;34196;-82
2022/11/07 10:57:34;;;;;;;18.73;11.18;;;;;;;14.59;68.79;100277.53;4317973;33;34942;-80
2022/11/07 11:00:04;;;;;;;15.98;9.50;;;;;;;13.83;71.48;100273.84;4305552;33;33642;-72
2022/11/07 11:02:44;;;;;;;21.58;12.73;;;;;;;13.90;72.02;100269.00;4301183;33;33886;-76
2022/11/07 11:05:32;;;;;;;18.15;11.38;;;;;;;14.10;71.45;100262.94;4289804;33;35047;-73
2022/11/07 11:08:14;;;;;;;17.40;10.32;;;;;;;13.95;72.85;100266.34;4302839;33;33709;-74
2022/11/07 11:10:42;;;;;;;70.47;36.42;;;;;;;14.41;70.34;100265.91;4302678;33;33353;-75
2022/11/07 11:13:31;;;;;;;118.40;50.42;;;;;;;14.51;69.62;100257.81;4311328;33;35003;-74
2022/11/07 11:16:29;;;;;;;28.90;15.98;;;;;;;14.40;69.01;100258.78;4303881;33;35070;-80
2022/11/07 11:18:59;;;;;;;60.03;31.20;;;;;;;13.92;71.52;100253.22;4316841;33;34775;-74
2022/11/07 11:21:37;;;;;;;29.30;18.10;;;;;;;13.91;71.90;100246.12;4304151;33;33496;-83
2022/11/07 11:24:34;;;;;;;21.80;11.40;;;;;;;13.92;72.23;100246.94;4317437;33;34823;-74
2022/11/07 11:27:11;;;;;;;21.00;12.63;;;;;;;14.14;71.39;100255.03;4303004;33;34198;-74
2022/11/07 11:29:41;;;;;;;14.02;9.73;;;;;;;14.28;70.65;100250.81;4303004;33;34349;-75
2022/11/07 11:32:37;;;;;;;12.88;9.10;;;;;;;14.38;69.98;100249.22;4315579;33;33343;-76
2022/11/07 11:35:07;;;;;;;13.85;9.27;;;;;;;14.48;69.96;100252.84;4272828;33;33849;-75
2022/11/07 11:37:37;;;;;;;12.60;9.07;;;;;;;14.23;70.80;100250.75;4317172;33;34301;-75
2022/11/07 11:40:09;;;;;;;14.55;8.68;;;;;;;14.46;69.74;100246.00;4304331;33;34074;-76